createdAt,value
2023-02-14T00:02:25.662Z,1.9
2023-02-14T00:07:25.608Z,1.9
2023-02-14T00:12:25.459Z,1.9
2023-02-14T00:17:26.713Z,1.9
2023-02-14T00:22:26.130Z,1.9
2023-02-14T00:27:25.628Z,1.9
2023-02-14T00:32:25.446Z,1.9
2023-02-14T00:37:25.349Z,1.9
2023-02-14T00:42:25.428Z,1.9
2023-02-14T00:47:25.440Z,1.8
2023-02-14T00:52:25.496Z,1.8
2023-02-14T00:57:25.328Z,1.8
2023-02-14T01:02:25.524Z,1.8
2023-02-14T01:07:25.655Z,1.8
2023-02-14T01:12:25.431Z,1.8
2023-02-14T01:17:25.490Z,1.8
2023-02-14T01:22:26.146Z,1.8
2023-02-14T01:27:26.278Z,1.7
2023-02-14T01:32:25.234Z,1.7
2023-02-14T01:37:25.265Z,1.7
2023-02-14T01:42:25.422Z,1.7
2023-02-14T01:47:25.257Z,1.7
2023-02-14T01:52:25.228Z,1.7
2023-02-14T01:57:25.289Z,1.7
2023-02-14T02:02:25.213Z,1.7
2023-02-14T02:07:25.180Z,1.7
2023-02-14T02:12:25.388Z,1.7
2023-02-14T02:17:25.131Z,1.7
2023-02-14T02:22:25.244Z,1.7
2023-02-14T02:27:26.121Z,1.7
2023-02-14T02:32:25.103Z,1.7
2023-02-14T02:37:25.128Z,1.7
2023-02-14T02:42:25.289Z,1.7
2023-02-14T02:47:25.121Z,1.7
2023-02-14T02:52:25.119Z,1.7
2023-02-14T02:57:25.257Z,1.7
2023-02-14T03:02:25.081Z,1.7
2023-02-14T03:07:25.091Z,1.7
2023-02-14T03:12:25.792Z,1.6
2023-02-14T03:17:25.069Z,1.7
2023-02-14T03:22:25.057Z,1.6
2023-02-14T03:27:25.394Z,1.6
2023-02-14T03:32:25.045Z,1.6
2023-02-14T03:37:25.039Z,1.6
2023-02-14T03:42:25.271Z,1.6
2023-02-14T03:47:25.012Z,1.6
2023-02-14T03:52:25.041Z,1.6
2023-02-14T03:57:25.182Z,1.7
2023-02-14T04:02:25.013Z,1.7
2023-02-14T04:07:24.957Z,1.7
2023-02-14T04:12:37.117Z,1.7
2023-02-14T04:17:24.940Z,1.7
2023-02-14T04:22:24.943Z,1.7
2023-02-14T04:27:25.089Z,1.7
2023-02-14T04:32:25.058Z,1.7
2023-02-14T04:37:24.945Z,1.7
2023-02-14T04:42:25.247Z,1.7
2023-02-14T04:47:24.965Z,1.7
2023-02-14T04:52:24.874Z,1.7
2023-02-14T04:57:25.083Z,1.7
2023-02-14T05:02:24.951Z,1.7
2023-02-14T05:07:24.872Z,1.6
2023-02-14T05:12:24.935Z,1.6
2023-02-14T05:17:24.828Z,1.6
2023-02-14T05:22:24.811Z,1.6
2023-02-14T05:27:24.930Z,1.6
2023-02-14T05:32:24.775Z,1.6
2023-02-14T05:37:37.272Z,1.6
2023-02-14T05:42:37.254Z,1.6
2023-02-14T05:47:37.170Z,1.6
2023-02-14T05:52:37.294Z,1.6
2023-02-14T05:57:37.123Z,1.6
2023-02-14T06:02:37.193Z,1.6
2023-02-14T06:07:37.296Z,1.6
2023-02-14T06:12:37.079Z,1.6
2023-02-14T06:17:37.092Z,1.6
2023-02-14T06:22:37.183Z,1.6
2023-02-14T06:27:37.077Z,1.6
2023-02-14T06:32:37.057Z,1.6
2023-02-14T06:37:37.182Z,1.6
2023-02-14T06:42:37.134Z,1.6
2023-02-14T06:47:37.199Z,1.6
2023-02-14T06:52:36.984Z,1.6
2023-02-14T06:57:37.090Z,1.6
2023-02-14T07:02:37.373Z,1.6
2023-02-14T07:07:38.163Z,1.7
2023-02-14T07:12:37.005Z,1.7
2023-02-14T07:17:37.034Z,1.8
2023-02-14T07:22:36.981Z,1.8
2023-02-14T07:27:37.006Z,1.8
2023-02-14T07:32:37.154Z,1.9
2023-02-14T07:37:37.062Z,1.9
2023-02-14T07:42:36.999Z,2.0
2023-02-14T07:47:37.323Z,2.0
2023-02-14T07:52:36.919Z,2.0
2023-02-14T07:57:36.940Z,2.1
2023-02-14T08:02:37.041Z,2.1
2023-02-14T08:07:36.944Z,2.2
2023-02-14T08:13:00.212Z,2.3
2023-02-14T08:17:37.034Z,2.3
2023-02-14T08:22:37.483Z,2.4
2023-02-14T08:27:36.836Z,2.5
2023-02-14T08:32:36.884Z,2.5
2023-02-14T08:37:36.835Z,2.5
2023-02-14T08:42:36.803Z,2.6
2023-02-14T08:47:37.009Z,2.7
2023-02-14T08:52:36.861Z,2.7
2023-02-14T08:57:36.882Z,2.8
2023-02-14T09:02:37.214Z,2.8
2023-02-14T09:07:36.977Z,2.9
2023-02-14T09:12:36.872Z,2.9
2023-02-14T09:17:36.831Z,3.0
2023-02-14T09:22:36.933Z,3.1
2023-02-14T09:27:36.720Z,3.1
2023-02-14T09:32:36.951Z,3.2
2023-02-14T09:37:36.747Z,3.3
2023-02-14T09:42:36.829Z,3.3
2023-02-14T09:47:36.934Z,3.3
2023-02-14T09:52:36.784Z,3.4
2023-02-14T09:57:36.669Z,3.5
2023-02-14T10:02:36.721Z,3.5
2023-02-14T10:07:36.705Z,3.5
2023-02-14T10:12:36.712Z,3.4
2023-02-14T10:17:36.803Z,3.4
2023-02-14T10:22:36.649Z,3.4
2023-02-14T10:27:36.665Z,3.4
2023-02-14T10:32:36.749Z,3.4
2023-02-14T10:37:36.595Z,3.5
2023-02-14T10:42:36.694Z,3.5
2023-02-14T10:47:36.767Z,3.5
2023-02-14T10:52:36.580Z,3.6
2023-02-14T10:57:36.610Z,3.6
2023-02-14T11:02:36.732Z,3.7
2023-02-14T11:07:36.598Z,3.7
2023-02-14T11:12:36.558Z,3.7
2023-02-14T11:17:36.667Z,3.7
2023-02-14T11:22:36.533Z,3.7
2023-02-14T11:27:37.933Z,3.7
2023-02-14T11:32:36.701Z,3.7
2023-02-14T11:37:36.506Z,3.8
2023-02-14T11:42:36.527Z,3.8
2023-02-14T11:47:36.598Z,3.8
2023-02-14T11:52:36.497Z,3.8
2023-02-14T11:57:36.488Z,3.9
2023-02-14T12:02:36.692Z,3.9
2023-02-14T12:07:36.499Z,3.9
2023-02-14T12:12:36.405Z,3.9
2023-02-14T12:17:37.895Z,4.0
2023-02-14T12:22:36.532Z,4.0
2023-02-14T12:27:36.707Z,4.1
2023-02-14T12:32:36.572Z,4.1
2023-02-14T12:37:36.470Z,4.2
2023-02-14T12:42:36.386Z,4.2
2023-02-14T12:47:36.653Z,4.3
2023-02-14T12:52:36.335Z,4.3
2023-02-14T12:57:36.399Z,4.2
2023-02-14T13:02:36.567Z,4.2
2023-02-14T13:07:38.978Z,4.3
2023-02-14T13:12:36.564Z,4.2
2023-02-14T13:17:36.338Z,4.3
2023-02-14T13:22:36.376Z,4.3
2023-02-14T13:27:37.438Z,4.3
2023-02-14T13:37:36.356Z,4.3
2023-02-14T13:42:36.348Z,4.3
2023-02-14T13:47:36.537Z,4.3
2023-02-14T13:52:38.386Z,4.3
2023-02-14T13:57:36.294Z,4.3
2023-02-14T14:02:36.263Z,4.3
2023-02-14T14:07:36.244Z,4.3
2023-02-14T14:12:36.259Z,4.3
2023-02-14T14:17:36.912Z,4.2
2023-02-14T14:22:37.000Z,4.2
2023-02-14T14:27:36.261Z,4.2
2023-02-14T14:32:36.959Z,4.1
2023-02-14T14:37:36.425Z,4.1
2023-02-14T14:42:36.928Z,4.1
2023-02-14T14:47:36.262Z,4.1
2023-02-14T14:52:36.258Z,4.1
2023-02-14T14:57:36.343Z,4.0
2023-02-14T15:02:36.162Z,4.0
2023-02-14T15:07:36.205Z,4.0
2023-02-14T15:12:36.315Z,3.9
2023-02-14T15:17:36.109Z,3.8
2023-02-14T15:22:36.450Z,3.8
2023-02-14T15:27:36.319Z,3.8
2023-02-14T15:32:36.180Z,3.7
2023-02-14T15:37:36.092Z,3.7
2023-02-14T15:42:36.722Z,3.6
2023-02-14T15:47:36.170Z,3.6
2023-02-14T15:52:36.098Z,3.5
2023-02-14T15:57:36.214Z,3.5
2023-02-14T16:02:36.145Z,3.5
2023-02-14T16:07:36.031Z,3.5
2023-02-14T16:12:36.225Z,3.4
2023-02-14T16:17:36.028Z,3.4
2023-02-14T16:22:36.039Z,3.4
2023-02-14T16:27:36.192Z,3.4
2023-02-14T16:32:36.184Z,3.3
2023-02-14T16:37:36.010Z,3.3
2023-02-14T16:42:36.168Z,3.3
2023-02-14T16:47:35.939Z,3.3
2023-02-14T16:52:35.968Z,3.3
2023-02-14T16:57:36.071Z,3.2
2023-02-14T17:02:36.055Z,3.2
2023-02-14T17:07:36.054Z,3.2
2023-02-14T17:12:36.204Z,3.2
2023-02-14T17:17:35.923Z,3.2
2023-02-14T17:22:35.906Z,3.2
2023-02-14T17:27:35.982Z,3.1
2023-02-14T17:32:35.888Z,3.1
2023-02-14T17:37:35.857Z,3.1
2023-02-14T17:42:35.972Z,3.1
2023-02-14T17:47:36.079Z,3.0
2023-02-14T17:52:35.955Z,3.0
2023-02-14T17:57:35.812Z,3.0
2023-02-14T18:02:35.861Z,3.0
2023-02-14T18:07:35.898Z,3.0
2023-02-14T18:12:35.926Z,3.0
2023-02-14T18:17:36.801Z,2.9
2023-02-14T18:22:36.297Z,2.9
2023-02-14T18:27:35.767Z,2.9
2023-02-14T18:32:35.788Z,2.9
2023-02-14T18:37:35.776Z,2.9
2023-02-14T18:42:35.791Z,2.8
2023-02-14T18:47:35.872Z,2.8
2023-02-14T18:52:35.833Z,2.8
2023-02-14T18:57:35.751Z,2.8
2023-02-14T19:02:38.709Z,2.8
2023-02-14T19:07:35.763Z,2.8
2023-02-14T19:12:35.725Z,2.8
2023-02-14T19:17:37.159Z,2.7
2023-02-14T19:22:35.725Z,2.7
2023-02-14T19:27:35.661Z,2.7
2023-02-14T19:32:35.715Z,2.7
2023-02-14T19:37:35.754Z,2.7
2023-02-14T19:42:36.755Z,2.7
2023-02-14T19:52:39.434Z,2.7
2023-02-14T19:57:39.332Z,2.6
2023-02-14T20:02:39.674Z,2.6
2023-02-14T20:07:41.176Z,2.6
2023-02-14T20:12:39.365Z,2.6
2023-02-14T20:17:39.440Z,2.6
2023-02-14T20:22:39.342Z,2.6
2023-02-14T20:27:39.466Z,2.6
2023-02-14T20:32:39.485Z,2.6
2023-02-14T20:37:41.512Z,2.6
2023-02-14T20:42:40.308Z,2.6
2023-02-14T20:47:39.626Z,2.6
2023-02-14T20:52:39.570Z,2.6
2023-02-14T20:57:40.191Z,2.6
2023-02-14T21:02:39.348Z,2.6
2023-02-14T21:07:39.233Z,2.6
2023-02-14T21:12:39.993Z,2.6
2023-02-14T21:17:39.295Z,2.5
2023-02-14T21:22:39.448Z,2.5
2023-02-14T21:27:40.043Z,2.5
2023-02-14T21:32:39.274Z,2.5
2023-02-14T21:37:40.119Z,2.5
2023-02-14T21:42:39.336Z,2.5
2023-02-14T21:47:39.459Z,2.5
2023-02-14T21:52:39.145Z,2.5
2023-02-14T21:57:39.183Z,2.5
2023-02-14T22:02:39.518Z,2.5
2023-02-14T22:07:40.582Z,2.5
2023-02-14T22:12:40.514Z,2.5
2023-02-14T22:17:39.170Z,2.4
2023-02-14T22:22:39.139Z,2.4
2023-02-14T22:27:39.253Z,2.4
2023-02-14T22:32:39.238Z,2.4
2023-02-14T22:37:39.183Z,2.4
2023-02-14T22:42:42.457Z,2.4
2023-02-14T22:47:42.405Z,2.3
2023-02-14T22:52:42.405Z,2.3
2023-02-14T22:57:42.670Z,2.3
2023-02-14T23:02:42.436Z,2.3
2023-02-14T23:07:42.372Z,2.3
2023-02-14T23:12:42.506Z,2.3
2023-02-14T23:17:42.347Z,2.3
2023-02-14T23:22:42.365Z,2.3
2023-02-14T23:27:42.409Z,2.3
2023-02-14T23:32:42.303Z,2.2
2023-02-14T23:37:42.369Z,2.2
2023-02-14T23:42:42.500Z,2.2
2023-02-14T23:47:42.408Z,2.1
2023-02-14T23:52:42.405Z,2.1
2023-02-14T23:57:42.470Z,2.0
